Charlottetown, Canada
Current Conditions -  °F | °C
As of 7:00 PM on Saturday 25 Oct 2014 (Local Time) from CYYG Reporting Station
Drizzle Drizzle  
Wind Chill:   Ceiling: 400
Heat Index:   Visibility: 10mi
Dew Point:   Wind: 6mph
Humidity: 93%   Direction: 330°NNW
Pressure: 29.47"   Gusts: NA
Location:  46.24°N, 63.13°W
Report Text: CYYG 252200Z 33005KT 10SM -DZ BKN004 08/07 A2947 RMK SF7 SLP981
Loading
Personal Weather Stations






























Interactive Weather Map
Tropical Storm Tracking
New forecast layout! Learn more

10-Day Weather Forecast

Advertisements
Track Severe Weather on mobile